Hlavní strana
METAR-TAF:

METAR-TAF

Letiště :

Pajala, Švédsko

zeměpisná šířka: 67-14-44N, zeměpisná délka: 023-04-08E, výška: 165 m

Aktuální stav počasí

Zpráva byla vytvořena před 21 minutami, v 21:20 UTC
Východní vítr 7 kt
Teplota -6°C
Vlhkost vzduchu 93%
Tlak 1014 hPa

METAR: ESUP 122120Z AUTO 08007KT //// R11///// OVC003/// M06/M07 Q1014 RESN

Čas: 22:41 (21:41 UTC)


TAF: chybějící

Stav a předpovědi počasí z více než 4 000 letišť (zprávy METAR a TAF).

Červené a žluté tečky na mapě představují dostupné meteorologické stanice.

Když kurzor umístíte na tečku, zobrazí se název stanice.

Pak kliknutím zobrazíte stav a předpověď počasí.

Chcete-li změnit mapu, kliknutím na zelené tlačítko se znaménkem +mapu přiblížíte, kliknutím na zelené tlačítko se znaménkem – mapu oddálíte a kliknutím na zelené šipky přejdete na sousední mapy.


METAR-TAF: